createdAt,value
2023-01-21T00:01:20.483Z,4.20
2023-01-21T00:03:48.930Z,2.70
2023-01-21T00:06:17.553Z,1.70
2023-01-21T00:08:45.927Z,3.00
2023-01-21T00:11:15.841Z,2.30
2023-01-21T00:13:44.870Z,2.80
2023-01-21T00:16:14.310Z,3.10
2023-01-21T00:18:42.881Z,3.00
2023-01-21T00:21:11.099Z,2.40
2023-01-21T00:23:39.591Z,3.50
2023-01-21T00:26:10.624Z,3.10
2023-01-21T00:31:09.246Z,2.50
2023-01-21T00:33:38.104Z,1.50
2023-01-21T00:36:09.428Z,3.10
2023-01-21T00:38:37.951Z,4.80
2023-01-21T00:41:11.456Z,3.30
2023-01-21T00:43:43.523Z,2.80
2023-01-21T00:46:12.053Z,4.30
2023-01-21T00:48:40.782Z,3.60
2023-01-21T00:51:10.296Z,2.90
2023-01-21T00:53:43.589Z,5.00
2023-01-21T00:56:13.742Z,4.40
2023-01-21T00:58:43.727Z,3.10
2023-01-21T01:01:16.130Z,2.20
2023-01-21T01:03:45.704Z,4.20
2023-01-21T01:06:16.336Z,5.50
2023-01-21T01:08:45.940Z,4.70
2023-01-21T01:11:14.726Z,3.20
2023-01-21T01:13:43.732Z,3.60
2023-01-21T01:16:14.213Z,3.50
2023-01-21T01:18:42.740Z,4.70
2023-01-21T01:21:13.881Z,3.30
2023-01-21T01:23:42.579Z,3.00
2023-01-21T01:26:14.425Z,5.30
2023-01-21T01:28:43.129Z,4.30
2023-01-21T01:31:17.662Z,6.50
2023-01-21T01:33:46.774Z,4.90
2023-01-21T01:36:23.756Z,6.30
2023-01-21T01:38:53.446Z,2.80
2023-01-21T01:41:28.761Z,5.70
2023-01-21T01:44:01.164Z,6.00
2023-01-21T01:46:32.056Z,4.20
2023-01-21T01:49:21.661Z,5.50
2023-01-21T01:51:52.284Z,4.70
2023-01-21T01:54:29.895Z,5.40
2023-01-21T01:57:02.597Z,5.80
2023-01-21T01:59:32.149Z,4.80
2023-01-21T02:02:05.540Z,5.40
2023-01-21T02:04:39.862Z,5.80
2023-01-21T02:07:08.463Z,4.90
2023-01-21T02:09:36.578Z,5.40
2023-01-21T02:12:06.518Z,5.70
2023-01-21T02:14:42.938Z,5.00
2023-01-21T02:17:30.551Z,6.20
2023-01-21T02:20:20.850Z,5.50
2023-01-21T02:23:07.882Z,5.40
2023-01-21T02:26:19.256Z,6.10
2023-01-21T02:29:06.063Z,5.40
2023-01-21T02:31:53.375Z,6.20
2023-01-21T02:34:27.617Z,6.00
2023-01-21T02:37:15.057Z,6.30
2023-01-21T02:39:58.265Z,8.00
2023-01-21T02:42:33.198Z,7.30
2023-01-21T02:45:15.196Z,5.80
2023-01-21T02:48:06.921Z,5.60
2023-01-21T02:50:55.407Z,5.60
2023-01-21T02:53:25.995Z,18.70
2023-01-21T02:55:54.993Z,9.90
2023-01-21T02:58:29.407Z,5.00
2023-01-21T03:01:11.467Z,5.20
2023-01-21T03:03:41.314Z,5.00
2023-01-21T03:06:33.967Z,5.80
2023-01-21T03:09:20.574Z,4.60
2023-01-21T03:12:09.331Z,3.80
2023-01-21T03:15:10.888Z,2.40
2023-01-21T03:17:45.221Z,3.30
2023-01-21T03:20:18.069Z,3.00
2023-01-21T03:22:48.735Z,3.50
2023-01-21T03:25:17.732Z,3.80
2023-01-21T03:27:48.167Z,3.30
2023-01-21T03:30:20.622Z,3.30
2023-01-21T03:32:51.563Z,4.10
2023-01-21T03:35:31.927Z,5.60
2023-01-21T03:38:32.764Z,3.40
2023-01-21T03:41:21.830Z,3.60
2023-01-21T03:43:51.344Z,4.20
2023-01-21T03:46:32.011Z,4.90
2023-01-21T03:49:05.640Z,4.30
2023-01-21T03:51:38.285Z,4.40
2023-01-21T03:54:06.659Z,4.70
2023-01-21T03:56:34.944Z,5.60
2023-01-21T03:59:03.218Z,3.90
2023-01-21T04:01:31.596Z,5.30
2023-01-21T04:03:59.970Z,4.00
2023-01-21T04:06:28.149Z,5.10
2023-01-21T04:08:56.432Z,4.40
2023-01-21T04:11:24.808Z,3.90
2023-01-21T04:13:53.080Z,5.00
2023-01-21T04:16:21.943Z,4.50
2023-01-21T04:18:50.360Z,4.30
2023-01-21T04:21:18.936Z,4.70
2023-01-21T04:23:47.319Z,4.90
2023-01-21T04:26:16.743Z,4.60
2023-01-21T04:28:44.900Z,5.30
2023-01-21T04:31:13.199Z,4.90
2023-01-21T04:33:42.374Z,5.20
2023-01-21T04:36:10.962Z,6.90
2023-01-21T04:38:39.124Z,4.90
2023-01-21T04:41:07.511Z,4.60
2023-01-21T04:43:35.680Z,4.60
2023-01-21T04:46:04.170Z,5.70
2023-01-21T04:48:33.559Z,4.80
2023-01-21T04:51:01.782Z,4.60
2023-01-21T04:53:30.134Z,5.10
2023-01-21T04:55:58.597Z,5.70
2023-01-21T04:58:27.701Z,5.90
2023-01-21T05:00:56.414Z,6.70
2023-01-21T05:03:24.762Z,4.60
2023-01-21T05:05:53.032Z,4.70
2023-01-21T05:08:21.324Z,5.80
2023-01-21T05:10:49.691Z,6.10
2023-01-21T05:13:18.069Z,6.40
2023-01-21T05:15:46.380Z,4.50
2023-01-21T05:18:14.619Z,6.30
2023-01-21T05:20:43.001Z,6.20
2023-01-21T05:23:11.287Z,5.50
2023-01-21T05:25:39.467Z,7.10
2023-01-21T05:28:07.731Z,5.20
2023-01-21T05:30:37.477Z,5.00
2023-01-21T05:33:07.660Z,4.80
2023-01-21T05:35:36.040Z,4.80
2023-01-21T05:38:04.321Z,6.00
2023-01-21T05:40:33.009Z,4.60
2023-01-21T05:43:01.379Z,6.10
2023-01-21T05:45:29.766Z,5.40
2023-01-21T05:47:57.940Z,4.80
2023-01-21T05:50:26.313Z,4.90
2023-01-21T05:52:54.593Z,6.00
2023-01-21T05:55:22.977Z,4.80
2023-01-21T05:57:51.670Z,4.70
2023-01-21T06:00:20.757Z,5.10
2023-01-21T06:02:49.027Z,6.80
2023-01-21T06:05:17.432Z,5.10
2023-01-21T06:07:45.795Z,4.70
2023-01-21T06:10:15.619Z,5.10
2023-01-21T06:12:44.091Z,5.50
2023-01-21T06:15:14.182Z,4.70
2023-01-21T06:17:42.379Z,5.00
2023-01-21T06:20:11.748Z,5.10
2023-01-21T06:22:39.970Z,5.20
2023-01-21T06:25:09.020Z,5.70
2023-01-21T06:27:38.769Z,5.00
2023-01-21T06:30:09.117Z,6.80
2023-01-21T06:32:38.087Z,5.30
2023-01-21T06:35:06.783Z,5.40
2023-01-21T06:37:35.064Z,4.70
2023-01-21T06:40:04.148Z,5.20
2023-01-21T06:42:32.255Z,5.00
2023-01-21T06:45:00.799Z,6.40
2023-01-21T06:47:29.581Z,3.60
2023-01-21T06:49:57.869Z,2.90
2023-01-21T06:52:26.042Z,3.50
2023-01-21T06:54:54.316Z,4.90
2023-01-21T06:57:22.701Z,4.70
2023-01-21T06:59:51.414Z,4.90
2023-01-21T07:02:19.559Z,4.70
2023-01-21T07:04:50.607Z,4.60
2023-01-21T07:07:18.996Z,4.70
2023-01-21T07:09:47.354Z,5.30
2023-01-21T07:12:15.627Z,4.20
2023-01-21T07:14:44.013Z,4.50
2023-01-21T07:17:13.551Z,4.90
2023-01-21T07:19:43.139Z,6.20
2023-01-21T07:22:11.936Z,6.30
2023-01-21T07:24:40.502Z,5.60
2023-01-21T07:27:08.772Z,5.50
2023-01-21T07:29:37.061Z,8.70
2023-01-21T07:32:06.226Z,5.90
2023-01-21T07:34:34.595Z,5.50
2023-01-21T07:37:02.708Z,6.10
2023-01-21T07:39:30.810Z,8.40
2023-01-21T07:41:58.936Z,6.20
2023-01-21T07:44:28.040Z,6.80
2023-01-21T07:46:56.296Z,5.20
2023-01-21T07:49:24.452Z,6.00
2023-01-21T07:51:57.088Z,5.30
2023-01-21T07:54:25.265Z,5.50
2023-01-21T07:56:53.371Z,5.70
2023-01-21T07:59:21.722Z,4.80
2023-01-21T08:01:50.119Z,7.10
2023-01-21T08:04:18.307Z,6.50
2023-01-21T08:06:46.416Z,4.20
2023-01-21T08:09:14.493Z,3.90
2023-01-21T08:11:43.920Z,5.10
2023-01-21T08:14:12.000Z,3.90
2023-01-21T08:16:40.145Z,3.50
2023-01-21T08:19:08.253Z,4.80
2023-01-21T08:21:36.378Z,2.40
2023-01-21T08:24:04.875Z,4.00
2023-01-21T08:26:32.946Z,3.80
2023-01-21T08:29:01.049Z,3.30
2023-01-21T08:31:29.249Z,4.10
2023-01-21T08:33:58.881Z,3.90
2023-01-21T08:36:27.172Z,5.00
2023-01-21T08:38:56.151Z,5.30
2023-01-21T08:41:24.804Z,6.20
2023-01-21T08:43:52.908Z,5.90
2023-01-21T08:46:21.124Z,6.40
2023-01-21T08:48:49.501Z,7.30
2023-01-21T08:51:17.856Z,6.50
2023-01-21T08:53:49.399Z,5.30
2023-01-21T08:56:18.224Z,5.70
2023-01-21T08:58:46.534Z,5.00
2023-01-21T09:01:18.293Z,5.30
2023-01-21T09:03:46.431Z,5.80
2023-01-21T09:06:14.538Z,5.50
2023-01-21T09:08:42.651Z,5.80
2023-01-21T09:11:10.877Z,6.30
2023-01-21T09:13:39.951Z,6.50
2023-01-21T09:16:16.240Z,6.40
2023-01-21T09:18:45.022Z,6.60
2023-01-21T09:21:14.086Z,7.00
2023-01-21T09:23:42.540Z,6.30
2023-01-21T09:26:21.616Z,6.50
2023-01-21T09:28:56.088Z,7.50
2023-01-21T09:31:25.981Z,8.90
2023-01-21T09:33:57.271Z,9.60
2023-01-21T09:36:29.653Z,7.30
2023-01-21T09:38:58.773Z,7.20
2023-01-21T09:41:29.173Z,6.80
2023-01-21T09:44:11.087Z,7.30
2023-01-21T09:46:55.346Z,6.10
2023-01-21T09:49:35.144Z,6.80
2023-01-21T09:52:09.005Z,7.30
2023-01-21T09:54:39.113Z,8.60
2023-01-21T09:57:25.387Z,7.50
2023-01-21T10:00:07.515Z,7.10
2023-01-21T10:02:53.752Z,7.80
2023-01-21T10:05:33.856Z,7.10
2023-01-21T10:08:17.241Z,7.60
2023-01-21T10:11:00.341Z,7.30
2023-01-21T10:13:31.412Z,8.40
2023-01-21T10:16:11.442Z,9.20
2023-01-21T10:18:42.767Z,7.80
2023-01-21T10:21:25.600Z,8.70
2023-01-21T10:24:15.193Z,9.20
2023-01-21T10:26:46.187Z,9.20
2023-01-21T10:29:19.617Z,10.00
2023-01-21T10:31:59.545Z,7.40
2023-01-21T10:34:31.445Z,6.60
2023-01-21T10:37:26.110Z,6.20
2023-01-21T10:40:03.155Z,6.50
2023-01-21T10:42:36.995Z,5.20
2023-01-21T10:45:08.407Z,6.20
2023-01-21T10:47:45.164Z,7.30
2023-01-21T10:50:30.127Z,7.60
2023-01-21T10:53:19.453Z,6.80
2023-01-21T10:56:18.988Z,5.30
2023-01-21T10:58:54.143Z,6.90
2023-01-21T11:01:27.884Z,7.40
2023-01-21T11:04:04.806Z,7.10
2023-01-21T11:06:34.502Z,6.10
2023-01-21T11:09:05.409Z,7.60
2023-01-21T11:14:03.772Z,7.90
2023-01-21T11:16:37.055Z,7.20
2023-01-21T11:22:16.939Z,7.70
2023-01-21T11:24:50.273Z,7.90
2023-01-21T11:27:38.735Z,7.60
2023-01-21T11:30:48.344Z,8.10
2023-01-21T11:33:27.383Z,7.70
2023-01-21T11:35:56.537Z,7.70
2023-01-21T11:38:36.765Z,7.70
2023-01-21T11:41:15.621Z,7.80
2023-01-21T11:43:51.257Z,7.60
2023-01-21T11:46:36.120Z,8.50
2023-01-21T11:49:07.220Z,8.20
2023-01-21T11:51:39.329Z,7.10
2023-01-21T11:54:24.504Z,7.10
2023-01-21T11:56:55.918Z,7.50
2023-01-21T11:59:34.260Z,7.00
2023-01-21T12:02:29.525Z,7.30
2023-01-21T12:05:03.179Z,7.40
2023-01-21T12:07:34.069Z,7.90
2023-01-21T12:12:42.521Z,7.90
2023-01-21T12:15:45.691Z,6.20
2023-01-21T12:18:42.424Z,7.10
2023-01-21T12:21:25.447Z,7.10
2023-01-21T12:23:57.795Z,7.50
2023-01-21T12:26:38.075Z,8.10
2023-01-21T12:29:09.301Z,6.40
2023-01-21T12:31:44.955Z,6.80
2023-01-21T12:34:31.240Z,6.70
2023-01-21T12:37:09.369Z,7.50
2023-01-21T12:39:37.968Z,7.40
2023-01-21T12:42:29.445Z,7.00
2023-01-21T12:45:00.545Z,7.70
2023-01-21T12:48:21.276Z,6.50
2023-01-21T12:50:56.390Z,8.40
2023-01-21T12:53:43.722Z,7.50
2023-01-21T12:56:27.820Z,7.60
2023-01-21T12:59:05.837Z,7.90
2023-01-21T13:01:47.242Z,7.90
2023-01-21T13:04:38.415Z,8.40
2023-01-21T13:10:14.014Z,7.70
2023-01-21T13:12:46.116Z,7.70
2023-01-21T13:15:19.602Z,6.80
2023-01-21T13:18:01.244Z,6.30
2023-01-21T13:20:34.252Z,7.90
2023-01-21T13:23:09.409Z,6.50
2023-01-21T13:25:58.811Z,7.30
2023-01-21T13:28:42.743Z,8.40
2023-01-21T13:31:33.818Z,7.00
2023-01-21T13:34:39.556Z,9.50
2023-01-21T13:37:19.559Z,6.00
2023-01-21T13:40:13.466Z,8.50
2023-01-21T13:42:53.242Z,7.00
2023-01-21T13:45:49.142Z,8.20
2023-01-21T13:48:34.465Z,7.80
2023-01-21T13:51:11.861Z,7.20
2023-01-21T13:53:48.791Z,8.80
2023-01-21T13:56:37.298Z,7.40
2023-01-21T13:59:14.156Z,7.70
2023-01-21T14:01:47.779Z,7.90
2023-01-21T14:04:36.234Z,7.90
2023-01-21T14:07:18.469Z,7.80
2023-01-21T14:10:32.781Z,6.50
2023-01-21T14:13:36.271Z,8.30
2023-01-21T14:16:35.225Z,6.60
2023-01-21T14:19:27.441Z,8.50
2023-01-21T14:22:11.110Z,6.80
2023-01-21T14:24:56.310Z,7.20
2023-01-21T14:27:36.607Z,7.60
2023-01-21T14:30:13.894Z,9.30
2023-01-21T14:32:48.892Z,6.60
2023-01-21T14:36:10.290Z,8.00
2023-01-21T14:39:15.636Z,8.30
2023-01-21T14:42:09.370Z,9.60
2023-01-21T14:44:40.482Z,7.20
2023-01-21T14:47:40.348Z,8.40
2023-01-21T14:50:09.318Z,8.20
2023-01-21T14:52:46.909Z,8.50
2023-01-21T14:55:29.672Z,8.50
2023-01-21T14:58:00.874Z,9.00
2023-01-21T15:00:35.056Z,9.80
2023-01-21T15:03:27.815Z,8.70
2023-01-21T15:06:00.644Z,9.40
2023-01-21T15:08:46.382Z,9.20
2023-01-21T15:11:26.614Z,9.60
2023-01-21T15:14:04.014Z,9.30
2023-01-21T15:16:40.838Z,9.10
2023-01-21T15:19:08.908Z,9.70
2023-01-21T15:21:45.821Z,8.60
2023-01-21T15:24:27.042Z,11.20
2023-01-21T15:27:14.080Z,10.40
2023-01-21T15:29:55.136Z,11.30
2023-01-21T15:32:26.061Z,9.50
2023-01-21T15:37:52.081Z,9.20
2023-01-21T15:40:27.670Z,10.30
2023-01-21T15:43:04.824Z,9.50
2023-01-21T15:45:47.914Z,10.00
2023-01-21T15:48:41.318Z,10.60
2023-01-21T15:51:27.910Z,11.30
2023-01-21T15:54:14.702Z,11.60
2023-01-21T15:57:01.457Z,11.70
2023-01-21T16:00:00.327Z,11.20
2023-01-21T16:03:11.453Z,9.40
2023-01-21T16:06:03.146Z,10.20
2023-01-21T16:09:09.348Z,11.00
2023-01-21T16:12:04.932Z,10.40
2023-01-21T16:14:56.268Z,11.90
2023-01-21T16:17:30.296Z,9.90
2023-01-21T16:20:00.132Z,10.50
2023-01-21T16:22:32.855Z,11.00
2023-01-21T16:25:06.629Z,10.40
2023-01-21T16:27:35.415Z,10.50
2023-01-21T16:30:12.823Z,10.90
2023-01-21T16:32:41.032Z,13.20
2023-01-21T16:35:09.610Z,9.80
2023-01-21T16:37:37.788Z,11.70
2023-01-21T16:40:08.991Z,11.10
2023-01-21T16:42:41.611Z,9.40
2023-01-21T16:45:21.406Z,11.10
2023-01-21T16:47:57.522Z,11.80
2023-01-21T16:50:31.414Z,12.80
2023-01-21T16:53:06.418Z,10.70
2023-01-21T16:55:44.870Z,11.70
2023-01-21T16:58:46.913Z,8.50
2023-01-21T17:01:16.520Z,8.70
2023-01-21T17:03:47.306Z,9.30
2023-01-21T17:06:24.367Z,8.80
2023-01-21T17:09:01.543Z,10.20
2023-01-21T17:11:31.534Z,11.60
2023-01-21T17:14:02.223Z,16.00
2023-01-21T17:16:33.624Z,18.70
2023-01-21T17:19:05.969Z,12.70
2023-01-21T17:21:46.852Z,13.30
2023-01-21T17:27:00.718Z,13.40
2023-01-21T17:29:32.352Z,14.60
2023-01-21T17:32:25.525Z,15.40
2023-01-21T17:35:14.327Z,18.20
2023-01-21T17:37:53.206Z,13.60
2023-01-21T17:40:30.527Z,15.70
2023-01-21T17:43:01.901Z,12.90
2023-01-21T17:45:38.580Z,15.30
2023-01-21T17:48:10.963Z,12.80
2023-01-21T17:50:46.722Z,10.50
2023-01-21T17:53:27.968Z,13.50
2023-01-21T17:56:02.745Z,14.10
2023-01-21T17:58:31.591Z,16.40
2023-01-21T18:01:04.943Z,14.30
2023-01-21T18:03:33.360Z,13.80
2023-01-21T18:06:03.226Z,13.10
2023-01-21T18:08:31.285Z,14.20
2023-01-21T18:10:59.345Z,17.00
2023-01-21T18:13:27.560Z,14.70
2023-01-21T18:15:55.597Z,15.10
2023-01-21T18:18:30.515Z,13.40
2023-01-21T18:20:58.955Z,13.80
2023-01-21T18:23:27.157Z,15.40
2023-01-21T18:25:55.778Z,17.00
2023-01-21T18:28:27.095Z,15.10
2023-01-21T18:30:57.614Z,15.00
2023-01-21T18:33:25.903Z,14.90
2023-01-21T18:35:54.188Z,13.90
2023-01-21T18:38:30.239Z,13.80
2023-01-21T18:40:59.701Z,14.60
2023-01-21T18:43:27.791Z,15.90
2023-01-21T18:45:55.985Z,13.70
2023-01-21T18:48:29.628Z,13.50
2023-01-21T18:50:57.837Z,14.40
2023-01-21T18:53:26.132Z,13.60
2023-01-21T18:55:54.581Z,14.50
2023-01-21T18:58:22.768Z,13.60
2023-01-21T19:00:51.413Z,12.70
2023-01-21T19:03:20.221Z,13.00
2023-01-21T19:05:49.370Z,12.10
2023-01-21T19:08:22.126Z,12.30
2023-01-21T19:10:50.955Z,16.90
2023-01-21T19:13:20.096Z,19.30
2023-01-21T19:15:49.131Z,16.50
2023-01-21T19:18:17.556Z,15.80
2023-01-21T19:20:45.707Z,18.50
2023-01-21T19:23:18.538Z,13.70
2023-01-21T19:25:57.617Z,16.20
2023-01-21T19:28:25.805Z,14.20
2023-01-21T19:31:12.485Z,14.50
2023-01-21T19:33:43.076Z,15.30
2023-01-21T19:36:16.062Z,14.70
2023-01-21T19:38:54.561Z,17.10
2023-01-21T19:41:23.195Z,17.00
2023-01-21T19:43:51.914Z,17.80
2023-01-21T19:46:20.307Z,16.70
2023-01-21T19:48:50.510Z,16.70
2023-01-21T19:51:18.691Z,19.40
2023-01-21T19:53:46.822Z,16.50
2023-01-21T19:56:20.852Z,19.00
2023-01-21T19:58:49.388Z,18.10
2023-01-21T20:01:17.643Z,17.20
2023-01-21T20:03:59.276Z,18.10
2023-01-21T20:06:32.999Z,17.70
2023-01-21T20:09:01.480Z,19.50
2023-01-21T20:11:29.675Z,22.30
2023-01-21T20:13:57.975Z,23.20
2023-01-21T20:16:27.055Z,20.70
2023-01-21T20:18:56.433Z,21.40
2023-01-21T20:21:24.571Z,19.10
2023-01-21T20:23:52.953Z,19.80
2023-01-21T20:26:26.208Z,19.70
2023-01-21T20:28:54.736Z,20.80
2023-01-21T20:31:23.014Z,19.10
2023-01-21T20:33:51.172Z,20.30
2023-01-21T20:36:22.953Z,17.80
2023-01-21T20:38:52.814Z,18.30
2023-01-21T20:41:21.238Z,18.60
2023-01-21T20:43:49.423Z,17.10
2023-01-21T20:46:19.799Z,15.70
2023-01-21T20:48:48.432Z,19.90
2023-01-21T20:51:16.621Z,17.90
2023-01-21T20:53:44.809Z,17.20
2023-01-21T20:56:25.919Z,15.20
2023-01-21T20:58:54.418Z,15.90
2023-01-21T21:01:24.985Z,15.50
2023-01-21T21:03:53.277Z,17.30
2023-01-21T21:06:23.778Z,18.70
2023-01-21T21:08:54.092Z,15.50
2023-01-21T21:11:22.283Z,15.50
2023-01-21T21:13:52.551Z,16.40
2023-01-21T21:16:28.788Z,18.90
2023-01-21T21:18:57.256Z,15.90
2023-01-21T21:21:25.388Z,17.50
2023-01-21T21:23:53.536Z,20.10
2023-01-21T21:26:24.507Z,14.50
2023-01-21T21:29:03.144Z,14.90
2023-01-21T21:31:32.786Z,14.60
2023-01-21T21:34:00.975Z,16.40
2023-01-21T21:36:29.024Z,14.60
2023-01-21T21:38:57.110Z,15.00
2023-01-21T21:41:44.624Z,17.60
2023-01-21T21:44:13.599Z,17.10
2023-01-21T21:47:00.246Z,15.00
2023-01-21T21:49:29.315Z,14.20
2023-01-21T21:52:00.394Z,16.10
2023-01-21T21:54:28.642Z,16.10
2023-01-21T21:56:57.138Z,18.80
2023-01-21T21:59:25.384Z,22.40
2023-01-21T22:01:53.425Z,20.50
2023-01-21T22:04:23.120Z,18.10
2023-01-21T22:06:51.200Z,15.60
2023-01-21T22:09:19.333Z,15.90
2023-01-21T22:11:47.422Z,17.30
2023-01-21T22:14:15.775Z,15.50
2023-01-21T22:16:44.504Z,15.50
2023-01-21T22:19:12.672Z,15.10
2023-01-21T22:21:40.802Z,21.00
2023-01-21T22:24:09.769Z,17.90
2023-01-21T22:26:38.858Z,16.00
2023-01-21T22:29:07.118Z,14.60
2023-01-21T22:31:35.478Z,16.20
2023-01-21T22:34:03.852Z,15.60
2023-01-21T22:36:32.378Z,17.90
2023-01-21T22:39:00.800Z,17.20
2023-01-21T22:41:29.231Z,16.60
2023-01-21T22:43:57.510Z,15.40
2023-01-21T22:46:29.560Z,18.00
2023-01-21T22:48:58.472Z,14.70
2023-01-21T22:51:26.976Z,14.30
2023-01-21T22:53:55.583Z,14.40
2023-01-21T22:56:44.774Z,14.90
2023-01-21T22:59:14.285Z,13.30
2023-01-21T23:01:42.505Z,16.70
2023-01-21T23:04:10.802Z,16.80
2023-01-21T23:06:39.036Z,14.70
2023-01-21T23:09:09.570Z,13.30
2023-01-21T23:11:40.116Z,14.50
2023-01-21T23:14:10.022Z,14.50
2023-01-21T23:16:38.643Z,14.50
2023-01-21T23:19:06.815Z,15.90
2023-01-21T23:21:36.052Z,14.40
2023-01-21T23:24:05.325Z,12.10
2023-01-21T23:26:33.359Z,14.80
2023-01-21T23:29:01.855Z,13.80
2023-01-21T23:31:30.044Z,11.70
2023-01-21T23:33:58.822Z,11.90
2023-01-21T23:36:26.915Z,12.50
2023-01-21T23:38:54.902Z,12.20
2023-01-21T23:41:23.072Z,10.90
2023-01-21T23:43:51.108Z,11.90
2023-01-21T23:46:22.006Z,12.60
2023-01-21T23:51:19.017Z,12.50
2023-01-21T23:53:49.193Z,12.40
2023-01-21T23:56:20.756Z,12.40
2023-01-21T23:58:49.881Z,11.70
